Time;durP1;ratioP1;P1;durP2;ratioP2;P2;SDS_P1;SDS_P2;PMS_P1;PMS_P2;Temp;Humidity;BMP_temperature;BMP_pressure;BME280_temperature;BME280_humidity;BME280_pressure;Samples;Min_cycle;Max_cycle;Signal;HPM_P1;HPM_P2
2023/06/24 00:00:18;;;;;;;;;8.00;7.00;;;;;23.00;51.04;102062.94;5017802;28;45392;-69
2023/06/24 00:02:45;;;;;;;;;7.00;5.00;;;;;22.96;50.57;102056.22;5017609;28;45799;-70
2023/06/24 00:05:10;;;;;;;;;7.33;6.33;;;;;22.98;51.12;102045.19;5017562;28;45526;-71
2023/06/24 00:07:43;;;;;;;;;6.67;5.33;;;;;23.02;50.88;102060.84;5017387;28;45616;-70
2023/06/24 00:10:13;;;;;;;;;6.67;6.67;;;;;22.94;51.22;102031.16;5017745;28;45321;-69
2023/06/24 00:12:39;;;;;;;;;8.33;6.67;;;;;22.95;50.85;102053.69;5003426;28;47618;-71
2023/06/24 00:15:06;;;;;;;;;5.33;5.33;;;;;22.86;51.20;102042.16;5037311;28;45487;-69
2023/06/24 00:17:31;;;;;;;;;6.00;5.33;;;;;22.84;51.31;102036.09;5033781;28;45496;-70
2023/06/24 00:19:57;;;;;;;;;8.00;6.00;;;;;23.00;51.05;102053.94;5017476;28;45512;-69
2023/06/24 00:22:22;;;;;;;;;7.67;7.00;;;;;22.99;51.40;102047.69;5017069;28;45595;-70
2023/06/24 00:24:47;;;;;;;;;7.67;6.67;;;;;22.98;51.00;102050.59;5017262;28;45330;-70
2023/06/24 00:27:13;;;;;;;;;8.33;7.67;;;;;22.67;50.86;102002.94;5017256;28;45402;-71
2023/06/24 00:29:38;;;;;;;;;9.33;6.00;;;;;22.87;51.45;102043.00;5017618;28;45347;-70
2023/06/24 00:32:04;;;;;;;;;4.00;4.00;;;;;22.82;51.45;102051.69;5016574;28;69240;-70
2023/06/24 00:34:29;;;;;;;;;5.33;5.33;;;;;22.73;51.62;102037.41;5017004;28;45432;-69
2023/06/24 00:36:55;;;;;;;;;4.67;4.00;;;;;22.82;51.19;102056.28;5016743;28;45334;-69
2023/06/24 00:39:20;;;;;;;;;6.33;6.33;;;;;22.66;51.11;102033.78;5017464;28;45191;-70
2023/06/24 00:41:46;;;;;;;;;6.67;6.00;;;;;22.72;51.33;102038.44;5016760;28;45698;-69
2023/06/24 00:44:12;;;;;;;;;5.00;5.00;;;;;22.80;51.34;102055.59;5032521;28;45373;-69
2023/06/24 00:46:39;;;;;;;;;6.00;6.00;;;;;22.71;51.63;102039.47;5036956;28;45578;-70
2023/06/24 00:49:05;;;;;;;;;7.00;6.67;;;;;22.81;51.39;102052.69;5037108;28;45237;-70
2023/06/24 00:51:32;;;;;;;;;6.67;6.67;;;;;22.75;51.37;102039.91;5036787;28;45776;-69
2023/06/24 00:53:58;;;;;;;;;6.00;5.00;;;;;22.69;51.51;102027.13;5035931;28;45422;-69
2023/06/24 00:56:33;;;;;;;;;3.67;3.67;;;;;22.70;51.17;102043.22;5036793;28;45481;-70
2023/06/24 00:59:03;;;;;;;;;4.33;4.33;;;;;22.51;51.29;102022.16;5036583;28;45523;-71
2023/06/24 01:01:33;;;;;;;;;6.67;6.67;;;;;22.68;51.26;102048.00;5036692;28;46449;-69
2023/06/24 01:03:59;;;;;;;;;5.00;4.00;;;;;22.72;51.21;102045.72;5036467;28;45443;-70
2023/06/24 01:06:28;;;;;;;;;6.00;6.00;;;;;22.67;51.08;102038.19;5036951;28;45373;-70
2023/06/24 01:08:59;;;;;;;;;5.00;4.00;;;;;22.71;51.01;102044.88;5018367;28;45513;-69
2023/06/24 01:11:25;;;;;;;;;5.33;5.33;;;;;22.77;50.77;102052.25;5036446;28;45846;-70
2023/06/24 01:13:51;;;;;;;;;4.67;4.67;;;;;22.69;50.86;102046.97;5036075;28;45408;-69
2023/06/24 01:16:25;;;;;;;;;4.00;4.00;;;;;22.31;50.77;101989.41;5036615;28;45337;-69
2023/06/24 01:19:00;;;;;;;;;7.00;5.33;;;;;22.66;50.70;102039.22;5018506;28;45349;-69
2023/06/24 01:21:46;;;;;;;;;6.67;4.33;;;;;22.61;50.96;102024.53;5036313;28;46740;-69
2023/06/24 01:24:38;;;;;;;;;2.67;2.33;;;;;22.66;50.70;102046.50;5035959;28;45247;-70
2023/06/24 01:27:25;;;;;;;;;3.67;3.67;;;;;22.32;50.75;102001.91;5036688;28;45487;-71
2023/06/24 01:30:09;;;;;;;;;8.33;5.33;;;;;22.43;50.63;102019.56;5036465;28;45510;-70
2023/06/24 01:32:44;;;;;;;;;6.00;6.00;;;;;22.51;50.83;102048.41;5036105;28;47103;-69
2023/06/24 01:35:20;;;;;;;;;5.33;5.33;;;;;22.39;50.31;102031.78;5036247;28;45413;-71
2023/06/24 01:37:51;;;;;;;;;3.00;3.00;;;;;22.41;50.91;102037.84;5035878;28;45356;-69
2023/06/24 01:40:44;;;;;;;;;4.67;4.33;;;;;22.41;51.32;102027.03;5036635;28;45463;-69
2023/06/24 01:43:11;;;;;;;;;5.00;4.33;;;;;22.48;51.35;102035.25;5034612;28;46352;-70
2023/06/24 01:45:42;;;;;;;;;4.33;4.33;;;;;22.51;50.82;102037.56;5036235;28;45262;-71
2023/06/24 01:48:15;;;;;;;;;5.00;4.33;;;;;22.39;50.98;102010.13;5017962;28;45391;-69
2023/06/24 01:50:44;;;;;;;;;4.67;4.67;;;;;22.44;51.02;102021.25;5036515;28;45344;-69
2023/06/24 01:53:13;;;;;;;;;5.33;4.00;;;;;22.43;50.54;102028.53;5035151;28;46696;-70
2023/06/24 01:55:42;;;;;;;;;6.67;6.67;;;;;22.35;50.78;102027.78;5036069;28;45454;-69
2023/06/24 01:58:11;;;;;;;;;6.00;6.00;;;;;22.25;51.15;102032.69;5037275;28;45456;-69
2023/06/24 02:00:38;;;;;;;;;4.67;4.67;;;;;22.28;50.86;102026.88;5039656;28;45485;-69
2023/06/24 02:03:06;;;;;;;;;5.00;5.00;;;;;22.29;51.03;102023.13;5038971;28;47216;-70
2023/06/24 02:05:34;;;;;;;;;5.00;5.00;;;;;22.26;51.05;102026.22;5039393;28;45323;-70
2023/06/24 02:08:01;;;;;;;;;6.00;5.00;;;;;22.22;51.41;102016.78;5038937;28;45936;-69
2023/06/24 02:10:27;;;;;;;;;6.00;6.00;;;;;21.87;51.83;101962.38;5039711;28;45382;-70
2023/06/24 02:12:54;;;;;;;;;5.00;5.00;;;;;22.23;51.25;102034.75;5038890;28;46113;-70
2023/06/24 02:15:21;;;;;;;;;5.00;5.00;;;;;21.89;51.38;101965.75;5038941;28;45293;-71
2023/06/24 02:17:50;;;;;;;;;5.00;5.00;;;;;22.17;51.25;102003.81;5039328;28;45422;-70
2023/06/24 02:20:17;;;;;;;;;6.33;5.00;;;;;22.16;51.35;102002.97;5039142;28;46079;-72
2023/06/24 02:22:44;;;;;;;;;5.00;5.00;;;;;22.32;51.38;102026.31;5021256;28;47716;-70
2023/06/24 02:25:10;;;;;;;;;8.00;7.00;;;;;22.34;51.33;102034.25;5038918;28;45436;-70
2023/06/24 02:27:36;;;;;;;;;7.00;7.00;;;;;22.27;51.45;102026.03;5039482;28;45507;-70
2023/06/24 02:30:03;;;;;;;;;5.00;5.00;;;;;22.29;51.86;102031.28;5039027;28;45503;-70
2023/06/24 02:32:29;;;;;;;;;5.00;5.00;;;;;22.28;51.58;102046.69;5038492;28;47000;-70
2023/06/24 02:34:54;;;;;;;;;6.67;5.67;;;;;22.21;51.92;102045.75;5005050;28;45879;-70
2023/06/24 02:37:19;;;;;;;;;4.67;4.00;;;;;22.13;51.92;102030.44;5018971;28;45434;-70
2023/06/24 02:39:45;;;;;;;;;6.00;6.00;;;;;22.23;51.24;102045.59;5017802;28;45533;-70
2023/06/24 02:42:11;;;;;;;;;8.00;6.00;;;;;22.10;51.67;102030.81;5000917;28;46982;-70
2023/06/24 02:44:41;;;;;;;;;7.33;6.00;;;;;21.72;51.86;101977.78;5018494;28;45239;-70
2023/06/24 02:47:09;;;;;;;;;6.67;4.67;;;;;22.05;52.43;102037.84;5018884;28;45535;-69
2023/06/24 02:49:36;;;;;;;;;7.00;5.00;;;;;22.05;52.57;102040.56;5019132;28;45545;-70
2023/06/24 02:52:02;;;;;;;;;7.00;6.00;;;;;21.95;52.63;102032.66;5018439;28;45450;-72
2023/06/24 02:54:28;;;;;;;;;6.00;5.00;;;;;21.92;52.50;102038.47;5000568;28;45359;-70
2023/06/24 02:56:57;;;;;;;;;6.00;6.00;;;;;21.91;52.76;102039.50;5000981;28;45434;-70
2023/06/24 02:59:23;;;;;;;;;3.67;3.67;;;;;21.85;53.12;102041.09;5018951;28;45491;-68
2023/06/24 03:01:51;;;;;;;;;6.00;5.00;;;;;21.86;52.72;102031.94;5000477;28;46296;-69
2023/06/24 03:04:18;;;;;;;;;4.67;4.67;;;;;21.85;52.88;102030.25;5018525;28;45333;-69
2023/06/24 03:06:44;;;;;;;;;4.67;4.67;;;;;21.83;52.73;102023.34;5000322;28;45743;-76
2023/06/24 03:09:10;;;;;;;;;7.00;6.67;;;;;21.44;52.99;101975.75;4999851;28;45458;-70
2023/06/24 03:11:44;;;;;;;;;4.67;4.33;;;;;21.74;52.91;102016.34;5028151;28;45940;-70
2023/06/24 03:14:11;;;;;;;;;8.00;5.00;;;;;21.85;52.74;102032.13;5037765;28;45418;-70
2023/06/24 03:16:38;;;;;;;;;4.33;4.33;;;;;21.82;53.39;102043.31;5038112;28;45411;-70
2023/06/24 03:19:03;;;;;;;;;5.67;4.33;;;;;21.84;52.88;102035.88;5038817;28;45370;-69
2023/06/24 03:21:29;;;;;;;;;5.67;5.67;;;;;21.82;53.13;102032.47;5037789;28;45801;-70
2023/06/24 03:23:55;;;;;;;;;7.00;7.00;;;;;21.72;53.54;102027.34;5037950;28;45199;-70
2023/06/24 03:26:21;;;;;;;;;9.67;5.00;;;;;21.77;53.59;102030.34;5038196;28;45297;-69
2023/06/24 03:28:46;;;;;;;;;5.67;5.67;;;;;21.81;53.69;102030.78;5038335;28;45325;-70
2023/06/24 03:31:12;;;;;;;;;6.67;5.00;;;;;21.85;53.00;102026.72;5037549;28;45997;-69
2023/06/24 03:33:37;;;;;;;;;6.67;5.33;;;;;21.77;53.08;102018.66;5038016;28;45313;-70
2023/06/24 03:36:03;;;;;;;;;4.00;4.00;;;;;21.89;53.15;102033.44;5037902;28;45676;-71
2023/06/24 03:38:28;;;;;;;;;7.00;6.00;;;;;21.81;53.04;102019.97;5038075;28;45305;-70
2023/06/24 03:40:54;;;;;;;;;4.67;4.33;;;;;21.77;53.31;102033.03;5037676;28;45612;-70
2023/06/24 03:43:19;;;;;;;;;4.67;4.67;;;;;21.72;53.55;102042.75;5037610;28;45298;-71
2023/06/24 03:45:44;;;;;;;;;6.67;5.00;;;;;21.55;53.41;102015.84;5037882;28;45350;-71
2023/06/24 03:48:10;;;;;;;;;4.00;4.00;;;;;21.62;53.71;102034.88;5030384;28;50803;-69
2023/06/24 03:50:36;;;;;;;;;5.33;5.33;;;;;21.53;53.71;102033.31;5017934;28;45902;-70
2023/06/24 03:53:02;;;;;;;;;4.67;4.67;;;;;21.59;53.90;102037.97;5017336;28;45437;-70
2023/06/24 03:55:28;;;;;;;;;6.00;5.33;;;;;21.63;54.00;102046.59;5017720;28;45378;-69
2023/06/24 03:57:53;;;;;;;;;7.00;7.00;;;;;21.34;53.37;101995.97;5017418;28;45404;-71
2023/06/24 04:00:20;;;;;;;;;6.00;6.00;;;;;21.63;53.90;102049.28;5017712;28;46461;-70
2023/06/24 04:02:46;;;;;;;;;5.00;5.00;;;;;21.66;53.63;102054.34;5017720;28;45305;-69
2023/06/24 04:05:11;;;;;;;;;7.67;6.00;;;;;21.69;53.03;102054.78;5017511;28;45430;-70
2023/06/24 04:07:38;;;;;;;;;7.33;7.00;;;;;21.65;53.34;102060.78;5017711;28;45231;-69
2023/06/24 04:10:04;;;;;;;;;7.33;6.00;;;;;21.64;53.30;102051.81;5015902;28;47978;-70
2023/06/24 04:12:29;;;;;;;;;5.00;5.00;;;;;21.65;53.48;102053.50;5017365;28;45737;-69
2023/06/24 04:14:54;;;;;;;;;2.00;2.00;;;;;21.65;53.34;102041.81;5017821;28;45254;-72
2023/06/24 04:17:20;;;;;;;;;3.33;3.33;;;;;21.69;53.43;102038.56;5017816;28;45765;-70
2023/06/24 04:19:45;;;;;;;;;5.00;5.00;;;;;21.42;53.33;101988.59;4999330;28;47364;-70
2023/06/24 04:22:10;;;;;;;;;5.00;5.00;;;;;21.71;52.81;102019.41;5016610;28;45567;-70
2023/06/24 04:24:35;;;;;;;;;6.00;6.00;;;;;21.85;52.67;102042.97;5017657;28;45318;-69
2023/06/24 04:27:01;;;;;;;;;5.00;5.00;;;;;21.84;52.75;102043.97;5017660;28;45219;-68
2023/06/24 04:29:26;;;;;;;;;5.67;5.67;;;;;21.59;52.40;101991.97;5017046;28;46023;-69
2023/06/24 04:31:52;;;;;;;;;7.67;7.00;;;;;21.71;52.08;102008.59;5017213;28;45456;-69
2023/06/24 04:34:17;;;;;;;;;7.00;7.00;;;;;21.85;52.00;102032.13;4999064;28;45417;-70
2023/06/24 04:36:42;;;;;;;;;5.00;5.00;;;;;21.91;51.72;102046.78;5017328;28;45660;-71
2023/06/24 04:39:08;;;;;;;;;6.67;5.00;;;;;21.92;52.06;102046.59;5016781;28;45223;-69
2023/06/24 04:41:33;;;;;;;;;4.00;4.00;;;;;21.97;51.76;102054.97;5017213;28;45449;-69
2023/06/24 04:43:58;;;;;;;;;7.33;7.33;;;;;21.99;51.91;102052.91;5014105;28;45478;-69
2023/06/24 04:46:24;;;;;;;;;8.67;7.00;;;;;21.96;52.43;102039.75;5017140;28;45293;-69
2023/06/24 04:48:49;;;;;;;;;6.33;6.33;;;;;21.88;51.96;102020.06;5016754;28;50740;-70
2023/06/24 04:51:15;;;;;;;;;6.67;5.33;;;;;22.00;52.09;102054.59;5016467;28;45266;-70
2023/06/24 04:53:40;;;;;;;;;8.00;6.00;;;;;21.63;52.38;101992.47;5016712;28;45290;-70
2023/06/24 04:56:06;;;;;;;;;5.33;4.33;;;;;21.79;51.98;102006.63;5016436;28;45430;-69
2023/06/24 04:58:31;;;;;;;;;6.00;6.00;;;;;21.99;52.16;102047.50;5014472;28;50198;-70
2023/06/24 05:00:57;;;;;;;;;6.33;6.33;;;;;22.13;52.03;102046.69;5014631;28;45489;-69
2023/06/24 05:03:22;;;;;;;;;6.33;6.33;;;;;22.14;51.61;102052.94;5015527;28;45330;-70
2023/06/24 05:05:48;;;;;;;;;5.00;4.00;;;;;21.95;51.14;102012.88;5015459;28;45536;-70
2023/06/24 05:08:13;;;;;;;;;3.67;2.67;;;;;22.23;50.28;102059.13;5015057;28;46824;-70
2023/06/24 05:10:38;;;;;;;;;5.67;5.33;;;;;22.15;50.23;102041.09;5016992;28;45350;-69
2023/06/24 05:13:04;;;;;;;;;6.00;5.00;;;;;21.80;49.49;101991.22;5016516;28;45774;-70
2023/06/24 05:15:29;;;;;;;;;4.67;3.33;;;;;22.14;49.10;102047.53;5015873;28;45544;-70
2023/06/24 05:17:55;;;;;;;;;5.67;4.67;;;;;22.13;48.93;102046.69;5016173;28;45524;-70
2023/06/24 05:20:20;;;;;;;;;5.00;5.00;;;;;22.17;48.69;102048.00;4998675;28;45315;-70
2023/06/24 05:22:46;;;;;;;;;6.00;6.00;;;;;22.17;48.31;102039.88;5016352;28;45360;-70
2023/06/24 05:25:11;;;;;;;;;5.00;5.00;;;;;22.27;48.78;102052.28;5016372;28;53984;-71
2023/06/24 05:27:36;;;;;;;;;6.00;5.00;;;;;22.27;48.42;102038.75;5016320;28;46447;-70
2023/06/24 05:30:02;;;;;;;;;7.33;5.67;;;;;22.35;48.57;102039.47;5016389;28;45388;-69
2023/06/24 05:32:27;;;;;;;;;2.67;2.67;;;;;22.44;48.35;102053.75;5022622;28;45433;-69
2023/06/24 05:34:53;;;;;;;;;5.00;5.00;;;;;22.37;48.39;102031.16;5040208;28;45523;-69
2023/06/24 05:37:18;;;;;;;;;4.75;4.00;;;;;22.55;48.42;102055.13;5038728;28;50089;-71
2023/06/24 05:39:43;;;;;;;;;6.33;6.33;;;;;22.57;48.63;102044.94;5040003;28;45573;-71
2023/06/24 05:42:09;;;;;;;;;7.00;6.00;;;;;22.48;48.74;102037.97;5039611;28;45351;-70
2023/06/24 05:44:34;;;;;;;;;6.00;5.00;;;;;22.72;48.67;102059.28;5039938;28;45218;-72
2023/06/24 05:46:59;;;;;;;;;5.00;4.67;;;;;22.54;48.92;102012.78;5039178;28;47307;-70
2023/06/24 05:49:25;;;;;;;;;4.00;4.00;;;;;22.86;49.24;102053.00;5039266;28;53804;-69
2023/06/24 05:51:50;;;;;;;;;5.00;4.00;;;;;22.78;48.06;101983.41;5021519;28;45278;-70
2023/06/24 05:54:15;;;;;;;;;5.33;5.33;;;;;23.81;46.91;102051.69;5021560;28;45285;-69
2023/06/24 05:56:41;;;;;;;;;6.00;6.00;;;;;24.32;45.90;102019.59;5039032;28;45462;-70
2023/06/24 05:59:06;;;;;;;;;5.33;5.33;;;;;24.95;44.66;102038.34;5021129;28;45334;-69
2023/06/24 06:01:31;;;;;;;;;5.67;4.67;;;;;25.26;43.60;102051.41;5019646;28;45767;-70
2023/06/24 06:03:57;;;;;;;;;7.00;6.33;;;;;25.07;42.99;101950.50;5001975;28;45464;-70
2023/06/24 06:06:22;;;;;;;;;7.00;7.00;;;;;26.22;42.57;102055.19;5017859;28;48476;-69
2023/06/24 06:08:47;;;;;;;;;7.00;6.00;;;;;26.89;40.33;102056.56;5001021;28;45533;-70
2023/06/24 06:11:12;;;;;;;;;7.67;7.00;;;;;27.52;38.59;102051.03;5019446;28;45554;-69
2023/06/24 06:13:38;;;;;;;;;5.00;5.00;;;;;27.97;37.98;102045.31;5017804;28;45240;-69
2023/06/24 06:16:03;;;;;;;;;6.00;5.00;;;;;28.56;37.32;102042.94;5000905;28;58282;-69
2023/06/24 06:18:29;;;;;;;;;4.00;4.00;;;;;28.54;36.73;101984.88;5001170;28;46121;-69
2023/06/24 06:20:54;;;;;;;;;6.67;6.00;;;;;28.84;36.77;102050.53;5019201;28;45382;-71
2023/06/24 06:23:20;;;;;;;;;5.00;5.00;;;;;28.70;37.05;102039.78;5019459;28;45400;-70
2023/06/24 06:25:46;;;;;;;;;6.00;5.67;;;;;28.54;36.69;102045.91;5019104;28;45738;-70
2023/06/24 06:28:11;;;;;;;;;8.33;7.33;;;;;28.34;37.74;102048.06;5018623;28;45486;-69
2023/06/24 06:30:36;;;;;;;;;7.00;7.00;;;;;28.04;37.29;102050.75;5019100;28;45499;-69
2023/06/24 06:33:02;;;;;;;;;6.33;5.67;;;;;27.82;37.47;102056.63;5016586;28;46848;-69
2023/06/24 06:35:27;;;;;;;;;4.33;4.33;;;;;27.68;37.66;102046.91;5004426;28;45851;-69
2023/06/24 06:37:53;;;;;;;;;7.00;6.67;;;;;27.73;37.98;102049.81;5003920;28;45382;-68
2023/06/24 06:40:20;;;;;;;;;4.00;4.00;;;;;27.72;37.33;102058.22;5019622;28;45283;-69
2023/06/24 06:42:45;;;;;;;;;5.00;5.00;;;;;27.62;37.67;102063.31;5017281;28;45354;-69
2023/06/24 06:45:10;;;;;;;;;7.00;6.00;;;;;27.60;38.60;102049.91;5008057;28;49993;-70
2023/06/24 06:47:36;;;;;;;;;7.00;7.00;;;;;27.58;37.93;102052.84;5006274;28;45498;-69
2023/06/24 06:50:01;;;;;;;;;7.00;6.00;;;;;27.33;38.54;102008.34;5018414;28;45503;-75
2023/06/24 06:52:28;;;;;;;;;8.00;6.33;;;;;27.54;38.51;102048.91;5018316;28;45342;-69
2023/06/24 06:54:53;;;;;;;;;6.33;5.33;;;;;27.58;38.09;102052.84;5017345;28;46590;-70
2023/06/24 06:57:19;;;;;;;;;5.67;4.00;;;;;27.66;38.11;102046.31;5016460;28;45435;-72
2023/06/24 06:59:44;;;;;;;;;6.00;6.00;;;;;27.71;38.41;102053.81;5005339;28;45480;-70
2023/06/24 07:02:09;;;;;;;;;5.00;5.00;;;;;27.79;38.08;102053.53;5012117;28;45433;-69
2023/06/24 07:04:35;;;;;;;;;5.00;5.00;;;;;27.85;37.72;102047.16;5005836;28;45442;-69
2023/06/24 07:07:00;;;;;;;;;7.00;7.00;;;;;27.70;37.50;102011.16;5005965;28;45413;-70
2023/06/24 07:09:26;;;;;;;;;5.67;5.33;;;;;27.60;37.51;101995.25;5004092;28;45410;-70
2023/06/24 07:11:51;;;;;;;;;6.00;6.00;;;;;27.90;37.58;102044.56;5002453;28;45459;-70
2023/06/24 07:14:16;;;;;;;;;3.67;3.67;;;;;27.52;37.43;101988.19;5013283;28;47455;-69
2023/06/24 07:16:42;;;;;;;;;6.33;6.33;;;;;27.91;37.76;102048.97;5014469;28;46309;-69
2023/06/24 07:19:07;;;;;;;;;7.33;6.33;;;;;27.88;37.95;102039.34;5011178;28;45407;-70
2023/06/24 07:21:32;;;;;;;;;4.00;4.00;;;;;27.87;36.92;102023.16;5016137;28;59075;-69
2023/06/24 07:23:58;;;;;;;;;7.00;6.00;;;;;28.00;37.65;102047.59;5016453;28;47779;-71
2023/06/24 07:26:23;;;;;;;;;5.33;5.33;;;;;27.86;37.48;102044.19;5012915;28;45799;-70
2023/06/24 07:28:48;;;;;;;;;5.33;5.00;;;;;27.79;37.18;102046.16;5017020;28;48147;-69
2023/06/24 07:31:13;;;;;;;;;4.00;4.00;;;;;27.88;37.65;102046.72;5016140;28;45732;-69
2023/06/24 07:33:39;;;;;;;;;5.00;5.00;;;;;27.81;37.11;102026.78;5012918;28;54067;-70
2023/06/24 07:36:04;;;;;;;;;6.33;5.67;;;;;27.97;37.33;102036.28;5017488;28;63502;-69
2023/06/24 07:38:30;;;;;;;;;4.67;4.67;;;;;27.93;37.08;102027.72;5023247;28;45527;-69
2023/06/24 07:40:55;;;;;;;;;8.67;8.00;;;;;28.08;37.63;102041.84;5023132;28;45341;-70
2023/06/24 07:43:20;;;;;;;;;4.00;3.00;;;;;28.12;37.05;102043.06;4987409;28;47668;-68
2023/06/24 07:45:46;;;;;;;;;7.00;6.33;;;;;28.14;37.54;102042.81;5017521;28;45497;-69
2023/06/24 07:48:11;;;;;;;;;6.00;6.00;;;;;28.02;37.33;102009.94;5014287;28;45496;-74
2023/06/24 07:50:38;;;;;;;;;7.00;6.00;;;;;28.11;36.95;102015.94;5007922;28;45897;-69
2023/06/24 07:53:04;;;;;;;;;6.67;6.67;;;;;28.17;36.51;102024.03;5000198;28;47570;-69
2023/06/24 07:55:29;;;;;;;;;6.67;6.33;;;;;28.27;36.87;102036.38;5005056;28;45803;-71
2023/06/24 07:57:54;;;;;;;;;6.33;6.33;;;;;28.24;36.13;102029.44;4998990;28;54348;-69
2023/06/24 08:00:20;;;;;;;;;4.67;3.33;;;;;28.24;35.84;102037.66;5019930;28;45425;-70
2023/06/24 08:02:45;;;;;;;;;7.33;7.33;;;;;27.92;36.72;101982.31;5030600;28;46687;-71
2023/06/24 08:05:10;;;;;;;;;7.67;6.33;;;;;28.35;36.56;102036.06;5036705;28;54332;-69
2023/06/24 08:07:37;;;;;;;;;3.00;3.00;;;;;27.88;36.23;101949.16;5037016;28;45301;-69
2023/06/24 08:10:03;;;;;;;;;7.33;7.33;;;;;28.39;36.45;102026.31;5018846;28;45474;-70
2023/06/24 08:12:28;;;;;;;;;8.00;6.00;;;;;28.45;35.49;102028.97;5012015;28;46350;-70
2023/06/24 08:14:53;;;;;;;;;6.67;6.67;;;;;28.41;36.37;102019.53;5012404;28;45401;-69
2023/06/24 08:17:19;;;;;;;;;5.00;5.00;;;;;28.21;35.45;101979.81;5015596;28;45357;-68
2023/06/24 08:19:44;;;;;;;;;7.00;6.00;;;;;28.45;35.80;102017.22;5015700;28;45528;-70
2023/06/24 08:22:09;;;;;;;;;6.00;5.67;;;;;28.45;35.80;102011.75;5016301;28;46596;-68
2023/06/24 08:24:36;;;;;;;;;6.67;6.67;;;;;28.56;35.67;102018.31;5014927;28;45425;-70
2023/06/24 08:27:01;;;;;;;;;6.00;5.67;;;;;28.66;35.60;102022.16;5016891;28;45480;-69
2023/06/24 08:29:27;;;;;;;;;7.33;6.00;;;;;28.72;36.32;102013.00;5017177;28;45302;-70
2023/06/24 08:31:52;;;;;;;;;6.00;6.00;;;;;28.81;35.96;102018.13;4999698;28;49760;-69
2023/06/24 08:34:17;;;;;;;;;4.00;4.00;;;;;28.62;36.13;101977.16;5002287;28;52862;-69
2023/06/24 08:36:43;;;;;;;;;6.00;5.00;;;;;28.99;36.32;102015.34;5005954;28;45445;-69
2023/06/24 08:39:08;;;;;;;;;5.67;5.67;;;;;29.05;34.71;102017.16;4998262;28;45315;-69
2023/06/24 08:41:33;;;;;;;;;8.00;7.00;;;;;28.42;35.25;101917.25;4996582;28;45249;-71
2023/06/24 08:43:59;;;;;;;;;7.00;6.00;;;;;28.96;35.09;101997.47;5011401;28;45330;-69
2023/06/24 08:46:25;;;;;;;;;7.00;6.00;;;;;28.79;35.17;101966.34;5016643;28;45607;-71
2023/06/24 08:49:01;;;;;;;;;6.67;6.00;;;;;29.10;35.51;102000.00;5016710;28;45216;-67
2023/06/24 08:51:29;;;;;;;;;6.67;5.00;;;;;29.12;35.15;102015.13;5016455;28;45817;-70
2023/06/24 08:53:55;;;;;;;;;6.33;6.33;;;;;29.11;35.27;101991.56;5016059;28;45447;-70
2023/06/24 08:56:21;;;;;;;;;5.33;4.33;;;;;29.13;35.28;101978.47;4998332;28;45283;-70
2023/06/24 08:58:46;;;;;;;;;7.33;4.67;;;;;29.22;34.80;101981.66;5016640;28;45549;-69
2023/06/24 09:01:12;;;;;;;;;5.33;5.33;;;;;29.22;34.80;101982.50;5015876;28;45627;-71
2023/06/24 09:03:38;;;;;;;;;5.33;5.00;;;;;29.17;35.11;101974.16;5003337;28;45440;-70
2023/06/24 09:06:03;;;;;;;;;7.00;5.00;;;;;28.85;35.19;101923.53;5016521;28;45262;-70
2023/06/24 09:08:29;;;;;;;;;5.67;4.33;;;;;29.13;35.25;101981.19;5018476;28;45265;-68
2023/06/24 09:10:57;;;;;;;;;8.33;6.33;;;;;29.17;35.60;101968.69;5011855;28;46682;-71
2023/06/24 09:13:35;;;;;;;;;7.00;7.00;;;;;29.30;35.64;101984.91;5018335;28;45479;-72
2023/06/24 09:16:11;;;;;;;;;6.00;6.00;;;;;29.20;35.13;101968.22;5005677;28;45380;-70
2023/06/24 09:18:37;;;;;;;;;8.00;8.00;;;;;29.28;35.03;101978.81;5014592;28;45551;-71
2023/06/24 09:21:03;;;;;;;;;8.33;8.00;;;;;29.21;34.74;101969.88;5018175;28;45452;-70
2023/06/24 09:23:28;;;;;;;;;5.67;4.00;;;;;29.17;34.95;101971.44;5000823;28;45583;-70
2023/06/24 09:25:58;;;;;;;;;6.67;6.67;;;;;29.02;34.99;101943.66;5011010;28;45460;-70
2023/06/24 09:28:26;;;;;;;;;6.00;5.00;;;;;29.19;35.68;101969.28;5009917;28;45468;-70
2023/06/24 09:31:06;;;;;;;;;5.00;5.00;;;;;29.13;35.52;101962.03;4999653;28;46281;-72
2023/06/24 09:33:32;;;;;;;;;6.33;6.33;;;;;29.24;34.77;101958.47;5003101;28;45543;-69
2023/06/24 09:35:57;;;;;;;;;6.33;6.33;;;;;29.28;35.08;101959.66;5008429;28;45353;-70
2023/06/24 09:38:32;;;;;;;;;7.67;6.67;;;;;29.30;35.34;101960.25;5012148;28;45361;-69
2023/06/24 09:41:05;;;;;;;;;9.00;7.33;;;;;29.27;35.59;101957.97;5018143;28;46896;-69
2023/06/24 09:43:34;;;;;;;;;7.00;7.00;;;;;29.23;35.10;101944.97;5019431;28;45491;-69
2023/06/24 09:46:02;;;;;;;;;9.67;8.00;;;;;29.19;35.42;101955.59;5015291;28;45279;-70
2023/06/24 09:48:27;;;;;;;;;6.67;6.67;;;;;28.90;36.08;101896.31;5005014;28;45373;-71
2023/06/24 09:50:58;;;;;;;;;10.00;7.00;;;;;29.20;35.81;101949.03;5019384;28;46213;-71
2023/06/24 09:53:25;;;;;;;;;8.67;8.67;;;;;29.18;35.37;101937.50;5006508;28;45448;-68
2023/06/24 09:55:52;;;;;;;;;8.33;5.33;;;;;29.15;35.89;101932.50;5005902;28;45330;-70
2023/06/24 09:58:19;;;;;;;;;7.67;7.00;;;;;29.17;36.04;101938.56;4999336;28;45564;-70
2023/06/24 10:00:44;;;;;;;;;7.67;7.00;;;;;28.91;36.04;101889.78;4998862;28;47334;-70
2023/06/24 10:03:11;;;;;;;;;5.33;5.33;;;;;29.10;36.29;101935.13;5000440;28;45445;-69
2023/06/24 10:05:36;;;;;;;;;8.33;8.33;;;;;28.98;36.39;101926.06;5019228;28;45326;-69
2023/06/24 10:08:05;;;;;;;;;7.67;6.00;;;;;28.95;36.68;101919.16;5017919;28;45492;-71
2023/06/24 10:10:30;;;;;;;;;9.33;7.67;;;;;28.93;36.20;101915.84;4999014;28;47512;-69
2023/06/24 10:12:56;;;;;;;;;6.67;6.67;;;;;28.99;36.56;101922.25;4986913;28;46239;-71
2023/06/24 10:15:22;;;;;;;;;8.33;7.67;;;;;28.89;36.22;101905.59;5001248;28;45248;-69
2023/06/24 10:17:48;;;;;;;;;9.00;7.33;;;;;28.37;37.36;101821.41;4993816;28;45474;-69
2023/06/24 10:20:24;;;;;;;;;7.00;7.00;;;;;29.00;36.68;101911.06;5005229;28;45666;-68
2023/06/24 10:22:51;;;;;;;;;9.67;6.67;;;;;29.03;36.87;101904.28;5018743;28;45523;-69
2023/06/24 10:25:18;;;;;;;;;9.67;7.33;;;;;29.04;37.13;101898.59;5019156;28;45294;-70
2023/06/24 10:27:44;;;;;;;;;6.00;6.00;;;;;29.04;36.54;101893.09;5019160;28;45400;-69
2023/06/24 10:30:22;;;;;;;;;9.67;8.00;;;;;29.05;36.42;101896.69;5018557;28;45331;-70
2023/06/24 10:32:53;;;;;;;;;8.33;8.33;;;;;29.06;36.94;101880.00;5018790;28;45271;-68
2023/06/24 10:35:27;;;;;;;;;7.33;6.33;;;;;29.12;36.38;101889.16;5018800;28;45364;-69
2023/06/24 10:38:00;;;;;;;;;7.67;7.33;;;;;29.07;36.50;101880.84;5000820;28;45477;-69
2023/06/24 10:40:40;;;;;;;;;9.67;8.00;;;;;28.96;36.55;101865.22;5000519;28;46903;-70
2023/06/24 10:43:23;;;;;;;;;9.33;8.33;;;;;28.98;36.93;101877.63;5018851;28;45317;-70
2023/06/24 10:45:50;;;;;;;;;10.67;7.67;;;;;28.73;37.10;101858.66;5018752;28;45444;-69
2023/06/24 10:48:15;;;;;;;;;9.33;8.00;;;;;28.50;37.21;101825.00;5018651;28;45216;-68
2023/06/24 10:50:41;;;;;;;;;11.67;9.33;;;;;28.75;38.02;101867.47;5016783;28;48734;-70
2023/06/24 10:53:08;;;;;;;;;8.33;8.00;;;;;28.80;37.30;101880.44;5018117;28;45251;-69
2023/06/24 10:55:35;;;;;;;;;9.33;9.00;;;;;28.79;37.52;101859.63;5018432;28;45506;-69
2023/06/24 10:58:09;;;;;;;;;7.33;7.33;;;;;28.78;38.07;101867.00;5018529;28;45351;-69
2023/06/24 11:00:34;;;;;;;;;8.67;8.00;;;;;28.72;37.64;101851.53;5018384;28;45871;-68
2023/06/24 11:03:09;;;;;;;;;12.67;11.00;;;;;28.70;37.87;101856.41;5018148;28;45534;-69
2023/06/24 11:05:38;;;;;;;;;8.00;8.00;;;;;28.66;37.94;101857.13;4998441;28;45564;-71
2023/06/24 11:08:05;;;;;;;;;9.67;9.67;;;;;28.40;37.88;101831.88;5017828;28;45424;-70
2023/06/24 11:10:30;;;;;;;;;8.33;8.33;;;;;28.51;37.68;101852.13;5017903;28;47155;-69
2023/06/24 11:12:58;;;;;;;;;7.67;7.67;;;;;28.38;38.20;101833.19;5016711;28;45548;-72
2023/06/24 11:15:24;;;;;;;;;8.00;7.67;;;;;28.52;38.14;101852.94;5017544;28;45441;-69
2023/06/24 11:17:51;;;;;;;;;11.33;8.00;;;;;28.35;37.43;101823.53;5006697;28;45623;-69
2023/06/24 11:20:17;;;;;;;;;9.67;7.67;;;;;28.42;36.91;101834.38;5007656;28;45885;-71
2023/06/24 11:22:43;;;;;;;;;8.67;6.67;;;;;28.35;36.13;101817.25;4997824;28;45464;-70